Las Vegas, Nevada
Current Conditions -  °F | °C
As of 12:56 PM on Tuesday 25 Nov 2014 (Local Time) from KLAS Reporting Station
Clear Clear  
Wind Chill: 15°   Ceiling: Unl
Heat Index: 15°   Visibility: 10mi
Dew Point: -12°   Wind: 5mph
Humidity: 15%   Direction: 160°SSE
Pressure: 30.35"   Gusts: NA
Location:  36.17°N, 115.13°W
Report Text: KLAS 252056Z 16004KT 10SM CLR 15/M12 A3035 RMK AO2 SLP275 T01501117 58028
Loading
Personal Weather Stations






























Interactive Weather Map New forecast layout! Learn more

10-Day Weather Forecast

Advertisements
Track Severe Weather on mobile